sensor_id;sensor_type;location;lat;lon;timestamp;pressure;altitude;pressure_sealevel;temperature;humidity
57594;BME280;43423;46.510;6.686;2024-03-02T00:00:21;95408.59;;;4.70;100.00
57594;BME280;43423;46.510;6.686;2024-03-02T00:03:07;95409.47;;;4.76;100.00
57594;BME280;43423;46.510;6.686;2024-03-02T00:05:35;95402.19;;;4.73;100.00
57594;BME280;43423;46.510;6.686;2024-03-02T00:08:01;95414.84;;;4.86;100.00
57594;BME280;43423;46.510;6.686;2024-03-02T00:10:38;95411.84;;;4.84;100.00
57594;BME280;43423;46.510;6.686;2024-03-02T00:13:07;95407.97;;;4.75;100.00
57594;BME280;43423;46.510;6.686;2024-03-02T00:15:40;95404.94;;;4.73;100.00
57594;BME280;43423;46.510;6.686;2024-03-02T00:18:14;95406.28;;;4.78;100.00
57594;BME280;43423;46.510;6.686;2024-03-02T00:20:40;95397.00;;;4.85;100.00
57594;BME280;43423;46.510;6.686;2024-03-02T00:23:07;95401.50;;;4.88;100.00
57594;BME280;43423;46.510;6.686;2024-03-02T00:25:40;95402.56;;;4.90;100.00
57594;BME280;43423;46.510;6.686;2024-03-02T00:28:13;95394.00;;;4.97;100.00
57594;BME280;43423;46.510;6.686;2024-03-02T00:31:02;95403.00;;;4.89;100.00
57594;BME280;43423;46.510;6.686;2024-03-02T00:33:34;95411.25;;;4.80;100.00
57594;BME280;43423;46.510;6.686;2024-03-02T00:36:01;95394.16;;;4.79;100.00
57594;BME280;43423;46.510;6.686;2024-03-02T00:38:29;95401.41;;;4.82;100.00
57594;BME280;43423;46.510;6.686;2024-03-02T00:40:56;95402.44;;;4.85;100.00
57594;BME280;43423;46.510;6.686;2024-03-02T00:46:01;95407.38;;;4.71;100.00
57594;BME280;43423;46.510;6.686;2024-03-02T00:48:26;95409.81;;;4.69;100.00
57594;BME280;43423;46.510;6.686;2024-03-02T00:50:52;95411.59;;;4.72;100.00
57594;BME280;43423;46.510;6.686;2024-03-02T00:53:22;95400.09;;;4.54;100.00
57594;BME280;43423;46.510;6.686;2024-03-02T00:55:50;95403.75;;;4.51;100.00
57594;BME280;43423;46.510;6.686;2024-03-02T00:58:15;95399.06;;;4.51;100.00
57594;BME280;43423;46.510;6.686;2024-03-02T01:00:41;95399.06;;;4.51;100.00
57594;BME280;43423;46.510;6.686;2024-03-02T01:03:07;95394.25;;;4.46;100.00
57594;BME280;43423;46.510;6.686;2024-03-02T01:05:33;95394.72;;;4.44;100.00
57594;BME280;43423;46.510;6.686;2024-03-02T01:07:59;95399.06;;;4.51;100.00
57594;BME280;43423;46.510;6.686;2024-03-02T01:10:25;95386.94;;;4.52;100.00
57594;BME280;43423;46.510;6.686;2024-03-02T01:12:51;95390.53;;;4.58;100.00
57594;BME280;43423;46.510;6.686;2024-03-02T01:15:17;95384.72;;;4.65;100.00
57594;BME280;43423;46.510;6.686;2024-03-02T01:17:43;95384.38;;;4.72;100.00
57594;BME280;43423;46.510;6.686;2024-03-02T01:20:09;95384.91;;;4.62;100.00
57594;BME280;43423;46.510;6.686;2024-03-02T01:22:35;95383.97;;;4.65;100.00
57594;BME280;43423;46.510;6.686;2024-03-02T01:25:01;95387.00;;;4.67;100.00
57594;BME280;43423;46.510;6.686;2024-03-02T01:27:27;95381.16;;;4.59;100.00
57594;BME280;43423;46.510;6.686;2024-03-02T01:29:53;95371.88;;;4.42;100.00
57594;BME280;43423;46.510;6.686;2024-03-02T01:32:20;95381.91;;;4.36;100.00
57594;BME280;43423;46.510;6.686;2024-03-02T01:34:45;95377.28;;;4.27;100.00
57594;BME280;43423;46.510;6.686;2024-03-02T01:37:11;95385.88;;;4.26;100.00
57594;BME280;43423;46.510;6.686;2024-03-02T01:39:37;95381.25;;;4.41;100.00
57594;BME280;43423;46.510;6.686;2024-03-02T01:42:02;95383.34;;;4.46;100.00
57594;BME280;43423;46.510;6.686;2024-03-02T01:44:28;95385.53;;;4.33;100.00
57594;BME280;43423;46.510;6.686;2024-03-02T01:46:54;95380.03;;;4.42;100.00
57594;BME280;43423;46.510;6.686;2024-03-02T01:49:20;95380.56;;;4.55;100.00
57594;BME280;43423;46.510;6.686;2024-03-02T01:51:45;95382.75;;;4.66;100.00
57594;BME280;43423;46.510;6.686;2024-03-02T01:54:11;95371.97;;;4.71;100.00
57594;BME280;43423;46.510;6.686;2024-03-02T01:56:37;95372.44;;;4.70;100.00
57594;BME280;43423;46.510;6.686;2024-03-02T01:59:03;95370.13;;;4.78;100.00
57594;BME280;43423;46.510;6.686;2024-03-02T02:01:28;95364.47;;;4.66;100.00
57594;BME280;43423;46.510;6.686;2024-03-02T02:03:54;95352.44;;;4.58;100.00
57594;BME280;43423;46.510;6.686;2024-03-02T02:06:20;95363.06;;;4.47;100.00
57594;BME280;43423;46.510;6.686;2024-03-02T02:08:47;95360.72;;;4.40;100.00
57594;BME280;43423;46.510;6.686;2024-03-02T02:11:15;95362.28;;;4.32;100.00
57594;BME280;43423;46.510;6.686;2024-03-02T02:13:41;95360.13;;;4.36;100.00
57594;BME280;43423;46.510;6.686;2024-03-02T02:16:07;95370.97;;;4.45;100.00
57594;BME280;43423;46.510;6.686;2024-03-02T02:18:33;95364.38;;;4.37;100.00
57594;BME280;43423;46.510;6.686;2024-03-02T02:20:59;95365.66;;;4.27;100.00
57594;BME280;43423;46.510;6.686;2024-03-02T02:23:25;95361.47;;;4.40;100.00
57594;BME280;43423;46.510;6.686;2024-03-02T02:25:50;95366.09;;;4.49;100.00
57594;BME280;43423;46.510;6.686;2024-03-02T02:28:16;95364.97;;;4.56;100.00
57594;BME280;43423;46.510;6.686;2024-03-02T02:30:42;95350.34;;;4.53;100.00
57594;BME280;43423;46.510;6.686;2024-03-02T02:33:08;95349.19;;;4.45;100.00
57594;BME280;43423;46.510;6.686;2024-03-02T02:35:34;95353.53;;;4.52;100.00
57594;BME280;43423;46.510;6.686;2024-03-02T02:38:00;95337.47;;;4.54;100.00
57594;BME280;43423;46.510;6.686;2024-03-02T02:40:26;95339.06;;;4.45;100.00
57594;BME280;43423;46.510;6.686;2024-03-02T02:42:55;95347.44;;;4.33;100.00
57594;BME280;43423;46.510;6.686;2024-03-02T02:45:20;95343.00;;;4.44;100.00
57594;BME280;43423;46.510;6.686;2024-03-02T02:47:46;95340.09;;;4.48;100.00
57594;BME280;43423;46.510;6.686;2024-03-02T02:50:12;95331.16;;;4.47;100.00
57594;BME280;43423;46.510;6.686;2024-03-02T02:52:39;95320.97;;;4.33;100.00
57594;BME280;43423;46.510;6.686;2024-03-02T02:55:07;95332.03;;;4.54;100.00
57594;BME280;43423;46.510;6.686;2024-03-02T02:57:34;95315.84;;;4.35;100.00
57594;BME280;43423;46.510;6.686;2024-03-02T03:00:09;95313.16;;;4.50;100.00
57594;BME280;43423;46.510;6.686;2024-03-02T03:02:42;95330.66;;;4.34;100.00
57594;BME280;43423;46.510;6.686;2024-03-02T03:05:09;95325.03;;;4.38;100.00
57594;BME280;43423;46.510;6.686;2024-03-02T03:07:35;95321.41;;;4.17;100.00
57594;BME280;43423;46.510;6.686;2024-03-02T03:10:02;95322.06;;;4.12;100.00
57594;BME280;43423;46.510;6.686;2024-03-02T03:12:30;95305.88;;;4.08;100.00
57594;BME280;43423;46.510;6.686;2024-03-02T03:14:56;95321.88;;;4.15;100.00
57594;BME280;43423;46.510;6.686;2024-03-02T03:17:22;95314.81;;;4.09;100.00
57594;BME280;43423;46.510;6.686;2024-03-02T03:19:49;95317.13;;;4.01;100.00
57594;BME280;43423;46.510;6.686;2024-03-02T03:22:15;95316.50;;;4.06;100.00
57594;BME280;43423;46.510;6.686;2024-03-02T03:24:40;95318.63;;;4.02;100.00
57594;BME280;43423;46.510;6.686;2024-03-02T03:27:06;95312.78;;;3.95;100.00
57594;BME280;43423;46.510;6.686;2024-03-02T03:29:31;95313.78;;;4.06;100.00
57594;BME280;43423;46.510;6.686;2024-03-02T03:31:57;95311.53;;;4.05;100.00
57594;BME280;43423;46.510;6.686;2024-03-02T03:34:23;95318.28;;;4.09;100.00
57594;BME280;43423;46.510;6.686;2024-03-02T03:36:49;95319.78;;;4.10;100.00
57594;BME280;43423;46.510;6.686;2024-03-02T03:39:14;95311.31;;;4.08;100.00
57594;BME280;43423;46.510;6.686;2024-03-02T03:41:40;95309.47;;;4.14;100.00
57594;BME280;43423;46.510;6.686;2024-03-02T03:44:06;95303.16;;;4.08;100.00
57594;BME280;43423;46.510;6.686;2024-03-02T03:46:32;95299.75;;;4.23;100.00
57594;BME280;43423;46.510;6.686;2024-03-02T03:48:57;95305.72;;;4.12;100.00
57594;BME280;43423;46.510;6.686;2024-03-02T03:51:23;95305.81;;;4.17;100.00
57594;BME280;43423;46.510;6.686;2024-03-02T03:53:49;95296.84;;;4.26;100.00
57594;BME280;43423;46.510;6.686;2024-03-02T03:56:15;95292.09;;;4.36;100.00
57594;BME280;43423;46.510;6.686;2024-03-02T03:58:40;95301.09;;;4.42;100.00
57594;BME280;43423;46.510;6.686;2024-03-02T04:01:06;95300.59;;;4.53;100.00
57594;BME280;43423;46.510;6.686;2024-03-02T04:03:31;95306.69;;;4.62;100.00
57594;BME280;43423;46.510;6.686;2024-03-02T04:05:57;95311.59;;;4.58;100.00
57594;BME280;43423;46.510;6.686;2024-03-02T04:08:23;95318.72;;;4.70;100.00
57594;BME280;43423;46.510;6.686;2024-03-02T04:10:49;95312.44;;;4.64;100.00
57594;BME280;43423;46.510;6.686;2024-03-02T04:13:14;95308.94;;;4.64;100.00
57594;BME280;43423;46.510;6.686;2024-03-02T04:15:40;95316.59;;;4.74;100.00
57594;BME280;43423;46.510;6.686;2024-03-02T04:18:06;95310.28;;;4.68;100.00
57594;BME280;43423;46.510;6.686;2024-03-02T04:20:32;95317.88;;;4.64;100.00
57594;BME280;43423;46.510;6.686;2024-03-02T04:22:57;95312.53;;;4.70;100.00
57594;BME280;43423;46.510;6.686;2024-03-02T04:25:23;95315.84;;;4.74;100.00
57594;BME280;43423;46.510;6.686;2024-03-02T04:27:48;95309.69;;;4.64;100.00
57594;BME280;43423;46.510;6.686;2024-03-02T04:30:14;95303.50;;;4.64;100.00
57594;BME280;43423;46.510;6.686;2024-03-02T04:32:40;95313.25;;;4.56;100.00
57594;BME280;43423;46.510;6.686;2024-03-02T04:35:06;95314.19;;;4.53;100.00
57594;BME280;43423;46.510;6.686;2024-03-02T04:37:35;95309.22;;;4.51;100.00
57594;BME280;43423;46.510;6.686;2024-03-02T04:40:01;95311.25;;;4.41;100.00
57594;BME280;43423;46.510;6.686;2024-03-02T04:42:26;95306.75;;;4.38;100.00
57594;BME280;43423;46.510;6.686;2024-03-02T04:44:52;95304.97;;;4.35;100.00
57594;BME280;43423;46.510;6.686;2024-03-02T04:47:17;95303.34;;;4.29;100.00
57594;BME280;43423;46.510;6.686;2024-03-02T04:49:43;95306.47;;;4.12;100.00
57594;BME280;43423;46.510;6.686;2024-03-02T04:52:09;95303.00;;;4.12;100.00
57594;BME280;43423;46.510;6.686;2024-03-02T04:54:35;95299.94;;;4.19;100.00
57594;BME280;43423;46.510;6.686;2024-03-02T04:57:23;95301.88;;;4.18;100.00
57594;BME280;43423;46.510;6.686;2024-03-02T04:59:49;95288.47;;;4.15;100.00
57594;BME280;43423;46.510;6.686;2024-03-02T05:02:14;95284.13;;;4.08;100.00
57594;BME280;43423;46.510;6.686;2024-03-02T05:04:40;95296.84;;;4.02;100.00
57594;BME280;43423;46.510;6.686;2024-03-02T05:07:07;95296.34;;;4.13;100.00
57594;BME280;43423;46.510;6.686;2024-03-02T05:09:33;95308.53;;;4.17;100.00
57594;BME280;43423;46.510;6.686;2024-03-02T05:11:58;95305.66;;;4.21;100.00
57594;BME280;43423;46.510;6.686;2024-03-02T05:14:43;95301.03;;;4.12;100.00
57594;BME280;43423;46.510;6.686;2024-03-02T05:17:08;95305.72;;;4.12;100.00
57594;BME280;43423;46.510;6.686;2024-03-02T05:19:34;95296.97;;;4.08;100.00
57594;BME280;43423;46.510;6.686;2024-03-02T05:21:59;95292.75;;;4.07;100.00
57594;BME280;43423;46.510;6.686;2024-03-02T05:24:25;95304.38;;;4.07;100.00
57594;BME280;43423;46.510;6.686;2024-03-02T05:26:54;95300.56;;;3.90;100.00
57594;BME280;43423;46.510;6.686;2024-03-02T05:29:20;95288.19;;;3.89;100.00
57594;BME280;43423;46.510;6.686;2024-03-02T05:31:46;95307.78;;;3.93;100.00
57594;BME280;43423;46.510;6.686;2024-03-02T05:34:12;95298.75;;;3.87;100.00
57594;BME280;43423;46.510;6.686;2024-03-02T05:36:37;95298.31;;;3.88;100.00
57594;BME280;43423;46.510;6.686;2024-03-02T05:39:05;95293.16;;;3.90;100.00
57594;BME280;43423;46.510;6.686;2024-03-02T05:41:32;95294.88;;;3.79;100.00
57594;BME280;43423;46.510;6.686;2024-03-02T05:43:57;95297.59;;;3.79;100.00
57594;BME280;43423;46.510;6.686;2024-03-02T05:46:23;95285.88;;;3.73;100.00
57594;BME280;43423;46.510;6.686;2024-03-02T05:48:48;95296.56;;;3.76;100.00
57594;BME280;43423;46.510;6.686;2024-03-02T05:51:14;95293.84;;;3.76;100.00
57594;BME280;43423;46.510;6.686;2024-03-02T05:53:40;95290.38;;;3.76;100.00
57594;BME280;43423;46.510;6.686;2024-03-02T05:56:06;95289.84;;;3.62;100.00
57594;BME280;43423;46.510;6.686;2024-03-02T05:58:32;95286.81;;;3.60;100.00
57594;BME280;43423;46.510;6.686;2024-03-02T06:01:11;95290.47;;;3.57;100.00
57594;BME280;43423;46.510;6.686;2024-03-02T06:03:37;95288.66;;;3.63;100.00
57594;BME280;43423;46.510;6.686;2024-03-02T06:06:03;95282.28;;;3.67;100.00
57594;BME280;43423;46.510;6.686;2024-03-02T06:08:28;95276.91;;;3.81;100.00
57594;BME280;43423;46.510;6.686;2024-03-02T06:10:54;95276.44;;;3.83;100.00
57594;BME280;43423;46.510;6.686;2024-03-02T06:13:21;95261.63;;;3.84;100.00
57594;BME280;43423;46.510;6.686;2024-03-02T06:15:47;95271.13;;;3.88;100.00
57594;BME280;43423;46.510;6.686;2024-03-02T06:18:13;95258.91;;;3.84;100.00
57594;BME280;43423;46.510;6.686;2024-03-02T06:20:38;95257.34;;;3.92;100.00
57594;BME280;43423;46.510;6.686;2024-03-02T06:23:04;95267.25;;;4.04;100.00
57594;BME280;43423;46.510;6.686;2024-03-02T06:25:29;95269.25;;;3.95;100.00
57594;BME280;43423;46.510;6.686;2024-03-02T06:27:55;95262.16;;;3.97;100.00
57594;BME280;43423;46.510;6.686;2024-03-02T06:30:21;95267.41;;;4.01;100.00
57594;BME280;43423;46.510;6.686;2024-03-02T06:32:47;95265.09;;;4.08;100.00
57594;BME280;43423;46.510;6.686;2024-03-02T06:35:12;95259.38;;;4.06;100.00
57594;BME280;43423;46.510;6.686;2024-03-02T06:37:38;95259.28;;;4.15;100.00
57594;BME280;43423;46.510;6.686;2024-03-02T06:40:08;95269.53;;;4.20;100.00
57594;BME280;43423;46.510;6.686;2024-03-02T06:42:34;95258.44;;;4.09;100.00
57594;BME280;43423;46.510;6.686;2024-03-02T06:45:00;95266.31;;;4.07;100.00
57594;BME280;43423;46.510;6.686;2024-03-02T06:47:26;95260.31;;;4.18;100.00
57594;BME280;43423;46.510;6.686;2024-03-02T06:49:51;95266.34;;;4.22;100.00
57594;BME280;43423;46.510;6.686;2024-03-02T06:52:18;95267.88;;;4.38;100.00
57594;BME280;43423;46.510;6.686;2024-03-02T06:54:45;95266.22;;;4.55;100.00
57594;BME280;43423;46.510;6.686;2024-03-02T06:57:12;95267.84;;;4.76;100.00
57594;BME280;43423;46.510;6.686;2024-03-02T06:59:37;95271.78;;;5.05;100.00
57594;BME280;43423;46.510;6.686;2024-03-02T07:02:03;95255.13;;;5.32;100.00
57594;BME280;43423;46.510;6.686;2024-03-02T07:04:29;95271.03;;;5.69;100.00
57594;BME280;43423;46.510;6.686;2024-03-02T07:06:54;95265.81;;;5.86;100.00
57594;BME280;43423;46.510;6.686;2024-03-02T07:09:20;95261.56;;;6.20;100.00
57594;BME280;43423;46.510;6.686;2024-03-02T07:11:48;95276.41;;;6.39;100.00
57594;BME280;43423;46.510;6.686;2024-03-02T07:14:14;95270.81;;;6.28;100.00
57594;BME280;43423;46.510;6.686;2024-03-02T07:16:40;95272.72;;;6.22;100.00
57594;BME280;43423;46.510;6.686;2024-03-02T07:19:08;95274.84;;;6.12;100.00
57594;BME280;43423;46.510;6.686;2024-03-02T07:21:34;95264.66;;;6.54;100.00
57594;BME280;43423;46.510;6.686;2024-03-02T07:24:00;95264.19;;;7.07;100.00
57594;BME280;43423;46.510;6.686;2024-03-02T07:26:29;95265.16;;;7.73;97.47
57594;BME280;43423;46.510;6.686;2024-03-02T07:28:56;95260.25;;;8.36;93.28
57594;BME280;43423;46.510;6.686;2024-03-02T07:31:22;95254.66;;;8.74;88.94
57594;BME280;43423;46.510;6.686;2024-03-02T07:33:48;95251.56;;;8.38;89.89
57594;BME280;43423;46.510;6.686;2024-03-02T07:36:14;95261.09;;;8.54;90.13
57594;BME280;43423;46.510;6.686;2024-03-02T07:38:40;95263.38;;;8.72;89.91
57594;BME280;43423;46.510;6.686;2024-03-02T07:41:07;95256.63;;;8.62;88.08
57594;BME280;43423;46.510;6.686;2024-03-02T07:43:33;95262.09;;;8.56;90.17
57594;BME280;43423;46.510;6.686;2024-03-02T07:45:59;95265.94;;;8.22;91.56
57594;BME280;43423;46.510;6.686;2024-03-02T07:48:25;95263.00;;;8.36;92.69
57594;BME280;43423;46.510;6.686;2024-03-02T07:50:51;95265.97;;;8.33;93.75
57594;BME280;43423;46.510;6.686;2024-03-02T07:53:16;95266.88;;;8.19;94.62
57594;BME280;43423;46.510;6.686;2024-03-02T07:55:42;95267.09;;;8.75;91.42
57594;BME280;43423;46.510;6.686;2024-03-02T07:58:08;95269.06;;;8.57;90.26
57594;BME280;43423;46.510;6.686;2024-03-02T08:00:34;95259.28;;;8.45;91.81
57594;BME280;43423;46.510;6.686;2024-03-02T08:03:00;95247.88;;;8.52;92.99
57594;BME280;43423;46.510;6.686;2024-03-02T08:05:26;95270.13;;;8.88;90.71
57594;BME280;43423;46.510;6.686;2024-03-02T08:07:52;95261.13;;;8.71;91.80
57594;BME280;43423;46.510;6.686;2024-03-02T08:10:19;95255.91;;;8.78;90.82
57594;BME280;43423;46.510;6.686;2024-03-02T08:12:45;95247.84;;;8.41;92.85
57594;BME280;43423;46.510;6.686;2024-03-02T08:15:11;95237.38;;;8.45;94.40
57594;BME280;43423;46.510;6.686;2024-03-02T08:17:39;95228.00;;;8.80;92.42
57594;BME280;43423;46.510;6.686;2024-03-02T08:20:11;95228.25;;;8.82;90.67
57594;BME280;43423;46.510;6.686;2024-03-02T08:22:37;95228.78;;;8.97;89.57
57594;BME280;43423;46.510;6.686;2024-03-02T08:25:03;95230.00;;;9.07;88.02
57594;BME280;43423;46.510;6.686;2024-03-02T08:27:28;95221.06;;;8.95;89.65
57594;BME280;43423;46.510;6.686;2024-03-02T08:29:54;95213.31;;;9.28;86.92
57594;BME280;43423;46.510;6.686;2024-03-02T08:32:20;95218.78;;;8.83;88.92
57594;BME280;43423;46.510;6.686;2024-03-02T08:34:45;95211.97;;;8.45;91.23
57594;BME280;43423;46.510;6.686;2024-03-02T08:37:11;95227.09;;;8.23;93.00
57594;BME280;43423;46.510;6.686;2024-03-02T08:39:37;95227.22;;;8.57;92.42
57594;BME280;43423;46.510;6.686;2024-03-02T08:42:02;95222.00;;;8.64;89.86
57594;BME280;43423;46.510;6.686;2024-03-02T08:44:30;95218.53;;;8.70;91.00
57594;BME280;43423;46.510;6.686;2024-03-02T08:46:56;95223.75;;;9.63;85.06
57594;BME280;43423;46.510;6.686;2024-03-02T08:49:21;95227.13;;;10.08;82.48
57594;BME280;43423;46.510;6.686;2024-03-02T08:51:47;95213.41;;;10.02;82.63
57594;BME280;43423;46.510;6.686;2024-03-02T08:54:23;95213.25;;;9.72;81.74
57594;BME280;43423;46.510;6.686;2024-03-02T08:56:49;95215.91;;;10.00;80.75
57594;BME280;43423;46.510;6.686;2024-03-02T08:59:16;95206.88;;;10.17;78.96
57594;BME280;43423;46.510;6.686;2024-03-02T09:01:41;95209.66;;;10.11;81.38
57594;BME280;43423;46.510;6.686;2024-03-02T09:04:07;95203.06;;;10.37;80.28
57594;BME280;43423;46.510;6.686;2024-03-02T09:06:36;95202.09;;;11.11;77.22
57594;BME280;43423;46.510;6.686;2024-03-02T09:09:02;95189.06;;;11.41;74.35
57594;BME280;43423;46.510;6.686;2024-03-02T09:11:28;95189.88;;;11.36;73.85
57594;BME280;43423;46.510;6.686;2024-03-02T09:13:54;95194.69;;;11.30;74.03
57594;BME280;43423;46.510;6.686;2024-03-02T09:16:21;95187.78;;;11.72;70.82
57594;BME280;43423;46.510;6.686;2024-03-02T09:18:47;95184.47;;;11.25;73.13
57594;BME280;43423;46.510;6.686;2024-03-02T09:21:12;95177.66;;;11.32;74.45
57594;BME280;43423;46.510;6.686;2024-03-02T09:23:38;95184.66;;;11.03;71.85
57594;BME280;43423;46.510;6.686;2024-03-02T09:26:05;95179.44;;;10.99;75.56
57594;BME280;43423;46.510;6.686;2024-03-02T09:28:31;95182.50;;;11.20;75.35
57594;BME280;43423;46.510;6.686;2024-03-02T09:30:56;95180.25;;;11.49;74.98
57594;BME280;43423;46.510;6.686;2024-03-02T09:33:22;95175.91;;;11.83;73.71
57594;BME280;43423;46.510;6.686;2024-03-02T09:35:48;95185.59;;;11.65;72.31
57594;BME280;43423;46.510;6.686;2024-03-02T09:38:14;95182.03;;;12.19;71.98
57594;BME280;43423;46.510;6.686;2024-03-02T09:40:41;95179.63;;;12.29;67.97
57594;BME280;43423;46.510;6.686;2024-03-02T09:43:07;95178.06;;;11.66;68.91
57594;BME280;43423;46.510;6.686;2024-03-02T09:45:33;95179.09;;;12.12;69.00
57594;BME280;43423;46.510;6.686;2024-03-02T09:47:59;95182.03;;;11.46;70.15
57594;BME280;43423;46.510;6.686;2024-03-02T09:50:25;95189.47;;;11.27;69.17
57594;BME280;43423;46.510;6.686;2024-03-02T09:52:51;95176.59;;;11.10;70.53
57594;BME280;43423;46.510;6.686;2024-03-02T09:55:18;95186.25;;;10.93;67.43
57594;BME280;43423;46.510;6.686;2024-03-02T09:57:47;95178.44;;;10.61;68.73
57594;BME280;43423;46.510;6.686;2024-03-02T10:00:15;95172.28;;;10.85;71.10
57594;BME280;43423;46.510;6.686;2024-03-02T10:02:42;95181.19;;;10.97;71.45
57594;BME280;43423;46.510;6.686;2024-03-02T10:05:11;95173.81;;;10.80;72.87
57594;BME280;43423;46.510;6.686;2024-03-02T10:07:39;95175.00;;;11.21;72.22
57594;BME280;43423;46.510;6.686;2024-03-02T10:10:15;95173.41;;;11.01;71.74
57594;BME280;43423;46.510;6.686;2024-03-02T10:12:41;95168.16;;;11.57;69.98
57594;BME280;43423;46.510;6.686;2024-03-02T10:15:07;95158.13;;;11.84;69.61
57594;BME280;43423;46.510;6.686;2024-03-02T10:17:35;95175.09;;;11.64;68.63
57594;BME280;43423;46.510;6.686;2024-03-02T10:22:50;95160.34;;;12.10;62.49
57594;BME280;43423;46.510;6.686;2024-03-02T10:25:31;95154.63;;;12.27;62.40
57594;BME280;43423;46.510;6.686;2024-03-02T10:27:58;95153.03;;;12.69;61.61
57594;BME280;43423;46.510;6.686;2024-03-02T10:30:28;95153.94;;;12.58;62.77
57594;BME280;43423;46.510;6.686;2024-03-02T10:32:55;95152.59;;;11.60;63.33
57594;BME280;43423;46.510;6.686;2024-03-02T10:35:22;95156.47;;;12.38;64.36
57594;BME280;43423;46.510;6.686;2024-03-02T10:37:55;95148.38;;;11.83;62.86
57594;BME280;43423;46.510;6.686;2024-03-02T10:40:23;95141.66;;;11.54;63.87
57594;BME280;43423;46.510;6.686;2024-03-02T10:42:50;95145.00;;;11.47;63.55
57594;BME280;43423;46.510;6.686;2024-03-02T10:45:16;95138.19;;;11.54;64.22
57594;BME280;43423;46.510;6.686;2024-03-02T10:47:43;95139.47;;;11.23;62.06
57594;BME280;43423;46.510;6.686;2024-03-02T10:50:09;95122.47;;;11.49;63.55
57594;BME280;43423;46.510;6.686;2024-03-02T10:52:36;95128.81;;;11.87;61.59
57594;BME280;43423;46.510;6.686;2024-03-02T10:55:02;95114.75;;;12.28;58.94
57594;BME280;43423;46.510;6.686;2024-03-02T10:57:50;95116.56;;;12.25;57.18
57594;BME280;43423;46.510;6.686;2024-03-02T11:00:18;95111.41;;;12.35;58.12
57594;BME280;43423;46.510;6.686;2024-03-02T11:02:52;95106.81;;;12.24;56.00
57594;BME280;43423;46.510;6.686;2024-03-02T11:05:43;95098.22;;;11.90;58.07
57594;BME280;43423;46.510;6.686;2024-03-02T11:08:13;95088.53;;;11.59;58.79
57594;BME280;43423;46.510;6.686;2024-03-02T11:10:51;95086.44;;;11.46;60.10
57594;BME280;43423;46.510;6.686;2024-03-02T11:13:22;95089.28;;;11.60;58.74
57594;BME280;43423;46.510;6.686;2024-03-02T11:15:52;95080.84;;;11.09;60.30
57594;BME280;43423;46.510;6.686;2024-03-02T11:18:20;95088.56;;;11.10;61.06
57594;BME280;43423;46.510;6.686;2024-03-02T11:20:46;95090.34;;;11.08;60.83
57594;BME280;43423;46.510;6.686;2024-03-02T11:23:13;95077.56;;;11.10;62.74
57594;BME280;43423;46.510;6.686;2024-03-02T11:25:39;95076.28;;;11.36;62.60
57594;BME280;43423;46.510;6.686;2024-03-02T11:28:06;95066.50;;;11.16;62.52
57594;BME280;43423;46.510;6.686;2024-03-02T11:35:28;95049.81;;;10.84;66.57
57594;BME280;43423;46.510;6.686;2024-03-02T11:37:54;95044.84;;;11.07;66.13
57594;BME280;43423;46.510;6.686;2024-03-02T11:40:23;95042.53;;;11.11;66.56
57594;BME280;43423;46.510;6.686;2024-03-02T11:42:50;95035.03;;;10.87;66.33
57594;BME280;43423;46.510;6.686;2024-03-02T11:45:35;95032.94;;;10.99;66.31
57594;BME280;43423;46.510;6.686;2024-03-02T11:48:05;95039.00;;;10.92;66.06
57594;BME280;43423;46.510;6.686;2024-03-02T11:50:36;95032.41;;;11.00;61.24
57594;BME280;43423;46.510;6.686;2024-03-02T11:53:07;95028.91;;;10.75;61.25
57594;BME280;43423;46.510;6.686;2024-03-02T11:55:38;95019.31;;;10.27;60.63
57594;BME280;43423;46.510;6.686;2024-03-02T11:58:09;95009.47;;;10.38;66.46
57594;BME280;43423;46.510;6.686;2024-03-02T12:00:35;95004.22;;;10.40;64.71
57594;BME280;43423;46.510;6.686;2024-03-02T12:05:31;95003.09;;;10.18;63.97
57594;BME280;43423;46.510;6.686;2024-03-02T12:08:02;95001.78;;;10.30;65.21
57594;BME280;43423;46.510;6.686;2024-03-02T12:10:28;94999.97;;;10.03;63.65
57594;BME280;43423;46.510;6.686;2024-03-02T12:13:01;94997.91;;;9.73;63.71
57594;BME280;43423;46.510;6.686;2024-03-02T12:15:31;94981.78;;;9.94;65.95
57594;BME280;43423;46.510;6.686;2024-03-02T12:17:58;94982.25;;;10.04;64.45
57594;BME280;43423;46.510;6.686;2024-03-02T12:20:26;94982.16;;;10.15;65.46
57594;BME280;43423;46.510;6.686;2024-03-02T12:22:53;94985.16;;;9.82;63.54
57594;BME280;43423;46.510;6.686;2024-03-02T12:25:23;94979.75;;;10.00;63.60
57594;BME280;43423;46.510;6.686;2024-03-02T12:27:50;94967.31;;;9.94;62.42
57594;BME280;43423;46.510;6.686;2024-03-02T12:30:17;94966.19;;;10.14;63.71
57594;BME280;43423;46.510;6.686;2024-03-02T12:32:44;94951.66;;;9.89;63.52
57594;BME280;43423;46.510;6.686;2024-03-02T12:35:10;94942.44;;;10.16;63.09
57594;BME280;43423;46.510;6.686;2024-03-02T12:37:48;94938.44;;;10.23;62.65
57594;BME280;43423;46.510;6.686;2024-03-02T12:40:15;94921.78;;;10.40;64.16
57594;BME280;43423;46.510;6.686;2024-03-02T12:42:44;94919.59;;;10.32;62.73
57594;BME280;43423;46.510;6.686;2024-03-02T12:45:11;94920.53;;;10.41;63.63
57594;BME280;43423;46.510;6.686;2024-03-02T12:47:37;94924.31;;;10.38;62.99
57594;BME280;43423;46.510;6.686;2024-03-02T12:50:04;94916.25;;;10.45;62.64
57594;BME280;43423;46.510;6.686;2024-03-02T12:52:31;94919.22;;;10.47;62.59
57594;BME280;43423;46.510;6.686;2024-03-02T12:55:04;94896.84;;;10.81;61.49
57594;BME280;43423;46.510;6.686;2024-03-02T12:57:32;94889.13;;;11.23;60.87
57594;BME280;43423;46.510;6.686;2024-03-02T13:00:03;94882.06;;;11.78;61.38
57594;BME280;43423;46.510;6.686;2024-03-02T13:02:42;94885.31;;;11.95;61.46
57594;BME280;43423;46.510;6.686;2024-03-02T13:05:07;94881.34;;;12.10;59.08
57594;BME280;43423;46.510;6.686;2024-03-02T13:07:37;94871.19;;;12.44;59.04
57594;BME280;43423;46.510;6.686;2024-03-02T13:10:04;94868.44;;;12.71;57.49
57594;BME280;43423;46.510;6.686;2024-03-02T13:12:30;94871.84;;;12.77;57.29
57594;BME280;43423;46.510;6.686;2024-03-02T13:14:58;94873.22;;;12.44;57.70